sensor_id;sensor_type;location;lat;lon;timestamp;pressure;altitude;pressure_sealevel;temperature;humidity
57644;BME280;43474;46.510;6.686;2023-05-19T00:01:58;96620.38;;;9.44;100.00
57644;BME280;43474;46.510;6.686;2023-05-19T00:04:30;96600.00;;;9.15;100.00
57644;BME280;43474;46.510;6.686;2023-05-19T00:06:57;96573.97;;;9.00;100.00
57644;BME280;43474;46.510;6.686;2023-05-19T00:09:23;96624.25;;;9.30;100.00
57644;BME280;43474;46.510;6.686;2023-05-19T00:11:49;96623.50;;;9.23;100.00
57644;BME280;43474;46.510;6.686;2023-05-19T00:14:15;96612.03;;;9.29;100.00
57644;BME280;43474;46.510;6.686;2023-05-19T00:16:41;96635.03;;;9.28;100.00
57644;BME280;43474;46.510;6.686;2023-05-19T00:19:07;96628.50;;;9.31;100.00
57644;BME280;43474;46.510;6.686;2023-05-19T00:21:35;96618.72;;;9.31;100.00
57644;BME280;43474;46.510;6.686;2023-05-19T00:24:05;96571.50;;;8.87;100.00
57644;BME280;43474;46.510;6.686;2023-05-19T00:26:31;96620.34;;;9.32;100.00
57644;BME280;43474;46.510;6.686;2023-05-19T00:28:57;96618.53;;;9.15;100.00
57644;BME280;43474;46.510;6.686;2023-05-19T00:31:23;96622.19;;;9.32;100.00
57644;BME280;43474;46.510;6.686;2023-05-19T00:33:48;96615.22;;;9.19;100.00
57644;BME280;43474;46.510;6.686;2023-05-19T00:36:14;96573.75;;;9.01;100.00
57644;BME280;43474;46.510;6.686;2023-05-19T00:38:39;96618.66;;;9.20;100.00
57644;BME280;43474;46.510;6.686;2023-05-19T00:41:06;96594.53;;;9.16;100.00
57644;BME280;43474;46.510;6.686;2023-05-19T00:43:32;96613.06;;;9.28;100.00
57644;BME280;43474;46.510;6.686;2023-05-19T00:45:59;96597.03;;;9.11;100.00
57644;BME280;43474;46.510;6.686;2023-05-19T00:48:25;96552.63;;;8.83;100.00
57644;BME280;43474;46.510;6.686;2023-05-19T00:50:52;96617.44;;;9.22;100.00
57644;BME280;43474;46.510;6.686;2023-05-19T00:53:19;96563.88;;;8.78;100.00
57644;BME280;43474;46.510;6.686;2023-05-19T00:55:46;96569.66;;;8.87;100.00
57644;BME280;43474;46.510;6.686;2023-05-19T00:58:12;96601.28;;;9.12;100.00
57644;BME280;43474;46.510;6.686;2023-05-19T01:00:39;96611.28;;;9.10;100.00
57644;BME280;43474;46.510;6.686;2023-05-19T01:03:05;96611.84;;;9.12;100.00
57644;BME280;43474;46.510;6.686;2023-05-19T01:05:38;96530.56;;;8.41;100.00
57644;BME280;43474;46.510;6.686;2023-05-19T01:08:04;96579.50;;;8.80;100.00
57644;BME280;43474;46.510;6.686;2023-05-19T01:10:30;96611.47;;;9.09;100.00
57644;BME280;43474;46.510;6.686;2023-05-19T01:12:55;96555.94;;;8.60;100.00
57644;BME280;43474;46.510;6.686;2023-05-19T01:15:22;96594.69;;;8.85;100.00
57644;BME280;43474;46.510;6.686;2023-05-19T01:17:57;96568.06;;;8.68;100.00
57644;BME280;43474;46.510;6.686;2023-05-19T01:23:31;96616.84;;;9.02;100.00
57644;BME280;43474;46.510;6.686;2023-05-19T01:31:42;96577.94;;;8.54;100.00
57644;BME280;43474;46.510;6.686;2023-05-19T01:34:12;96597.50;;;8.71;100.00
57644;BME280;43474;46.510;6.686;2023-05-19T01:36:40;96604.00;;;8.69;100.00
57644;BME280;43474;46.510;6.686;2023-05-19T01:39:09;96553.78;;;8.32;100.00
57644;BME280;43474;46.510;6.686;2023-05-19T01:41:38;96600.34;;;8.51;100.00
57644;BME280;43474;46.510;6.686;2023-05-19T01:44:06;96614.78;;;8.49;100.00
57644;BME280;43474;46.510;6.686;2023-05-19T01:46:32;96620.50;;;8.64;100.00
57644;BME280;43474;46.510;6.686;2023-05-19T01:48:58;96622.84;;;8.54;100.00
57644;BME280;43474;46.510;6.686;2023-05-19T01:51:24;96602.03;;;8.46;100.00
57644;BME280;43474;46.510;6.686;2023-05-19T01:53:50;96601.16;;;8.52;100.00
57644;BME280;43474;46.510;6.686;2023-05-19T01:56:22;96617.38;;;8.56;100.00
57644;BME280;43474;46.510;6.686;2023-05-19T01:58:59;96604.44;;;8.47;100.00
57644;BME280;43474;46.510;6.686;2023-05-19T02:04:17;96618.59;;;8.53;100.00
57644;BME280;43474;46.510;6.686;2023-05-19T02:07:25;96609.94;;;8.46;100.00
57644;BME280;43474;46.510;6.686;2023-05-19T02:10:04;96572.50;;;8.31;100.00
57644;BME280;43474;46.510;6.686;2023-05-19T02:12:35;96614.66;;;8.62;100.00
57644;BME280;43474;46.510;6.686;2023-05-19T02:15:10;96608.50;;;8.68;100.00
57644;BME280;43474;46.510;6.686;2023-05-19T02:17:40;96592.69;;;8.43;100.00
57644;BME280;43474;46.510;6.686;2023-05-19T02:20:07;96603.03;;;8.45;100.00
57644;BME280;43474;46.510;6.686;2023-05-19T02:22:36;96612.78;;;8.44;100.00
57644;BME280;43474;46.510;6.686;2023-05-19T02:25:01;96565.09;;;8.14;100.00
57644;BME280;43474;46.510;6.686;2023-05-19T02:27:27;96558.47;;;8.05;100.00
57644;BME280;43474;46.510;6.686;2023-05-19T02:29:54;96590.28;;;8.42;100.00
57644;BME280;43474;46.510;6.686;2023-05-19T02:32:20;96612.84;;;8.38;100.00
57644;BME280;43474;46.510;6.686;2023-05-19T02:34:45;96601.16;;;8.27;100.00
57644;BME280;43474;46.510;6.686;2023-05-19T02:37:12;96582.19;;;8.12;100.00
57644;BME280;43474;46.510;6.686;2023-05-19T02:39:39;96618.94;;;8.38;100.00
57644;BME280;43474;46.510;6.686;2023-05-19T02:42:05;96559.50;;;8.04;100.00
57644;BME280;43474;46.510;6.686;2023-05-19T02:44:30;96608.53;;;8.43;100.00
57644;BME280;43474;46.510;6.686;2023-05-19T02:46:56;96609.16;;;8.45;100.00
57644;BME280;43474;46.510;6.686;2023-05-19T02:49:22;96605.56;;;8.33;100.00
57644;BME280;43474;46.510;6.686;2023-05-19T02:51:47;96607.00;;;8.29;100.00
57644;BME280;43474;46.510;6.686;2023-05-19T02:54:13;96614.28;;;8.34;100.00
57644;BME280;43474;46.510;6.686;2023-05-19T02:56:38;96602.38;;;8.49;100.00
57644;BME280;43474;46.510;6.686;2023-05-19T02:59:04;96534.09;;;8.10;100.00
57644;BME280;43474;46.510;6.686;2023-05-19T03:01:30;96595.75;;;8.40;100.00
57644;BME280;43474;46.510;6.686;2023-05-19T03:03:57;96555.19;;;8.10;100.00
57644;BME280;43474;46.510;6.686;2023-05-19T03:06:23;96570.78;;;8.18;100.00
57644;BME280;43474;46.510;6.686;2023-05-19T03:08:49;96567.63;;;8.27;100.00
57644;BME280;43474;46.510;6.686;2023-05-19T03:11:15;96595.41;;;8.37;100.00
57644;BME280;43474;46.510;6.686;2023-05-19T03:13:41;96599.97;;;8.23;100.00
57644;BME280;43474;46.510;6.686;2023-05-19T03:16:07;96592.75;;;8.37;100.00
57644;BME280;43474;46.510;6.686;2023-05-19T03:18:35;96524.47;;;7.97;100.00
57644;BME280;43474;46.510;6.686;2023-05-19T03:21:01;96595.97;;;8.39;100.00
57644;BME280;43474;46.510;6.686;2023-05-19T03:23:27;96577.38;;;8.27;100.00
57644;BME280;43474;46.510;6.686;2023-05-19T03:25:52;96554.50;;;8.21;100.00
57644;BME280;43474;46.510;6.686;2023-05-19T03:28:21;96588.22;;;8.44;100.00
57644;BME280;43474;46.510;6.686;2023-05-19T03:30:48;96526.38;;;8.08;100.00
57644;BME280;43474;46.510;6.686;2023-05-19T03:33:16;96586.38;;;8.44;100.00
57644;BME280;43474;46.510;6.686;2023-05-19T03:35:42;96583.59;;;8.39;100.00
57644;BME280;43474;46.510;6.686;2023-05-19T03:38:08;96576.13;;;8.36;100.00
57644;BME280;43474;46.510;6.686;2023-05-19T03:40:34;96576.91;;;8.37;100.00
57644;BME280;43474;46.510;6.686;2023-05-19T03:43:04;96572.25;;;8.32;100.00
57644;BME280;43474;46.510;6.686;2023-05-19T03:45:30;96584.84;;;8.30;100.00
57644;BME280;43474;46.510;6.686;2023-05-19T03:47:55;96584.34;;;8.21;100.00
57644;BME280;43474;46.510;6.686;2023-05-19T03:50:21;96581.59;;;8.10;100.00
57644;BME280;43474;46.510;6.686;2023-05-19T03:52:47;96591.00;;;8.24;100.00
57644;BME280;43474;46.510;6.686;2023-05-19T03:55:13;96511.97;;;7.61;100.00
57644;BME280;43474;46.510;6.686;2023-05-19T03:57:39;96596.78;;;8.14;100.00
57644;BME280;43474;46.510;6.686;2023-05-19T04:00:06;96582.41;;;8.10;100.00
57644;BME280;43474;46.510;6.686;2023-05-19T04:02:32;96593.34;;;8.14;100.00
57644;BME280;43474;46.510;6.686;2023-05-19T04:04:58;96547.53;;;7.83;100.00
57644;BME280;43474;46.510;6.686;2023-05-19T04:07:23;96611.81;;;8.14;100.00
57644;BME280;43474;46.510;6.686;2023-05-19T04:09:49;96542.00;;;7.60;100.00
57644;BME280;43474;46.510;6.686;2023-05-19T04:12:15;96607.88;;;7.98;100.00
57644;BME280;43474;46.510;6.686;2023-05-19T04:14:40;96611.50;;;8.03;100.00
57644;BME280;43474;46.510;6.686;2023-05-19T04:17:06;96614.75;;;8.06;100.00
57644;BME280;43474;46.510;6.686;2023-05-19T04:19:32;96607.31;;;7.96;100.00
57644;BME280;43474;46.510;6.686;2023-05-19T04:21:58;96613.66;;;8.13;100.00
57644;BME280;43474;46.510;6.686;2023-05-19T04:24:24;96612.75;;;8.26;100.00
57644;BME280;43474;46.510;6.686;2023-05-19T04:26:49;96612.03;;;8.12;100.00
57644;BME280;43474;46.510;6.686;2023-05-19T04:29:15;96569.00;;;7.87;100.00
57644;BME280;43474;46.510;6.686;2023-05-19T04:31:43;96607.56;;;8.13;100.00
57644;BME280;43474;46.510;6.686;2023-05-19T04:34:09;96622.13;;;8.22;100.00
57644;BME280;43474;46.510;6.686;2023-05-19T04:36:35;96612.78;;;8.19;100.00
57644;BME280;43474;46.510;6.686;2023-05-19T04:39:01;96601.56;;;8.24;100.00
57644;BME280;43474;46.510;6.686;2023-05-19T04:41:28;96589.41;;;8.23;100.00
57644;BME280;43474;46.510;6.686;2023-05-19T04:43:54;96615.50;;;8.38;100.00
57644;BME280;43474;46.510;6.686;2023-05-19T04:46:22;96611.56;;;8.47;100.00
57644;BME280;43474;46.510;6.686;2023-05-19T04:48:49;96616.38;;;8.50;100.00
57644;BME280;43474;46.510;6.686;2023-05-19T04:51:15;96584.03;;;8.36;100.00
57644;BME280;43474;46.510;6.686;2023-05-19T04:53:42;96560.38;;;8.23;100.00
57644;BME280;43474;46.510;6.686;2023-05-19T04:56:08;96616.69;;;8.60;100.00
57644;BME280;43474;46.510;6.686;2023-05-19T04:58:34;96610.31;;;8.68;100.00
57644;BME280;43474;46.510;6.686;2023-05-19T05:00:59;96608.41;;;8.75;100.00
57644;BME280;43474;46.510;6.686;2023-05-19T05:03:25;96623.69;;;8.91;100.00
57644;BME280;43474;46.510;6.686;2023-05-19T05:05:51;96571.72;;;8.67;100.00
57644;BME280;43474;46.510;6.686;2023-05-19T05:08:17;96610.25;;;8.93;100.00
57644;BME280;43474;46.510;6.686;2023-05-19T05:10:51;96624.78;;;9.20;100.00
57644;BME280;43474;46.510;6.686;2023-05-19T05:13:21;96614.81;;;9.34;100.00
57644;BME280;43474;46.510;6.686;2023-05-19T05:15:47;96537.06;;;8.93;100.00
57644;BME280;43474;46.510;6.686;2023-05-19T05:18:14;96613.19;;;9.51;100.00
57644;BME280;43474;46.510;6.686;2023-05-19T05:20:43;96614.81;;;9.64;100.00
57644;BME280;43474;46.510;6.686;2023-05-19T05:23:10;96574.47;;;9.39;100.00
57644;BME280;43474;46.510;6.686;2023-05-19T05:25:42;96608.28;;;9.67;100.00
57644;BME280;43474;46.510;6.686;2023-05-19T05:28:09;96609.09;;;9.79;100.00
57644;BME280;43474;46.510;6.686;2023-05-19T05:30:34;96559.75;;;9.73;100.00
57644;BME280;43474;46.510;6.686;2023-05-19T05:33:01;96543.19;;;9.77;100.00
57644;BME280;43474;46.510;6.686;2023-05-19T05:35:27;96597.69;;;10.44;100.00
57644;BME280;43474;46.510;6.686;2023-05-19T05:37:53;96616.94;;;10.63;100.00
57644;BME280;43474;46.510;6.686;2023-05-19T05:40:19;96593.44;;;10.66;100.00
57644;BME280;43474;46.510;6.686;2023-05-19T05:42:45;96597.91;;;10.89;100.00
57644;BME280;43474;46.510;6.686;2023-05-19T05:45:10;96601.25;;;10.84;100.00
57644;BME280;43474;46.510;6.686;2023-05-19T05:47:36;96605.50;;;10.85;100.00
57644;BME280;43474;46.510;6.686;2023-05-19T05:50:04;96600.31;;;10.91;100.00
57644;BME280;43474;46.510;6.686;2023-05-19T05:52:31;96602.22;;;11.07;100.00
57644;BME280;43474;46.510;6.686;2023-05-19T05:54:56;96615.03;;;11.38;100.00
57644;BME280;43474;46.510;6.686;2023-05-19T05:57:22;96603.88;;;11.36;100.00
57644;BME280;43474;46.510;6.686;2023-05-19T05:59:48;96606.25;;;11.50;100.00
57644;BME280;43474;46.510;6.686;2023-05-19T06:02:18;96590.06;;;11.51;100.00
57644;BME280;43474;46.510;6.686;2023-05-19T06:04:44;96589.28;;;11.68;100.00
57644;BME280;43474;46.510;6.686;2023-05-19T06:07:09;96602.31;;;11.98;100.00
57644;BME280;43474;46.510;6.686;2023-05-19T06:09:35;96564.97;;;11.87;100.00
57644;BME280;43474;46.510;6.686;2023-05-19T06:12:01;96605.75;;;12.65;100.00
57644;BME280;43474;46.510;6.686;2023-05-19T06:14:26;96603.31;;;13.03;100.00
57644;BME280;43474;46.510;6.686;2023-05-19T06:16:52;96590.63;;;13.32;100.00
57644;BME280;43474;46.510;6.686;2023-05-19T06:19:18;96594.81;;;14.04;100.00
57644;BME280;43474;46.510;6.686;2023-05-19T06:21:44;96573.97;;;14.70;100.00
57644;BME280;43474;46.510;6.686;2023-05-19T06:24:10;96585.66;;;15.16;100.00
57644;BME280;43474;46.510;6.686;2023-05-19T06:26:36;96587.09;;;15.44;100.00
57644;BME280;43474;46.510;6.686;2023-05-19T06:29:01;96566.09;;;15.79;100.00
57644;BME280;43474;46.510;6.686;2023-05-19T06:31:27;96598.16;;;16.50;100.00
57644;BME280;43474;46.510;6.686;2023-05-19T06:33:53;96583.94;;;16.70;99.63
57644;BME280;43474;46.510;6.686;2023-05-19T06:36:19;96590.66;;;16.77;100.00
57644;BME280;43474;46.510;6.686;2023-05-19T06:38:45;96575.69;;;16.56;97.29
57644;BME280;43474;46.510;6.686;2023-05-19T06:41:11;96583.63;;;17.02;94.75
57644;BME280;43474;46.510;6.686;2023-05-19T06:43:37;96563.19;;;17.21;91.85
57644;BME280;43474;46.510;6.686;2023-05-19T06:46:03;96578.38;;;17.41;93.67
57644;BME280;43474;46.510;6.686;2023-05-19T06:48:29;96591.81;;;17.86;91.99
57644;BME280;43474;46.510;6.686;2023-05-19T06:50:55;96579.16;;;18.25;86.48
57644;BME280;43474;46.510;6.686;2023-05-19T06:53:21;96585.78;;;18.62;86.36
57644;BME280;43474;46.510;6.686;2023-05-19T06:55:47;96584.69;;;18.68;84.91
57644;BME280;43474;46.510;6.686;2023-05-19T06:58:16;96595.09;;;18.46;83.87
57644;BME280;43474;46.510;6.686;2023-05-19T07:00:42;96588.41;;;18.72;86.36
57644;BME280;43474;46.510;6.686;2023-05-19T07:03:08;96578.19;;;18.45;85.87
57644;BME280;43474;46.510;6.686;2023-05-19T07:05:34;96572.81;;;18.45;83.52
57644;BME280;43474;46.510;6.686;2023-05-19T07:07:59;96587.16;;;18.89;83.01
57644;BME280;43474;46.510;6.686;2023-05-19T07:10:26;96554.53;;;19.00;76.75
57644;BME280;43474;46.510;6.686;2023-05-19T07:12:52;96584.03;;;19.29;78.08
57644;BME280;43474;46.510;6.686;2023-05-19T07:15:18;96579.56;;;19.20;74.21
57644;BME280;43474;46.510;6.686;2023-05-19T07:17:43;96586.47;;;19.26;77.92
57644;BME280;43474;46.510;6.686;2023-05-19T07:20:09;96583.16;;;19.53;79.22
57644;BME280;43474;46.510;6.686;2023-05-19T07:22:35;96568.66;;;18.58;76.30
57644;BME280;43474;46.510;6.686;2023-05-19T07:25:06;96595.16;;;18.65;82.37
57644;BME280;43474;46.510;6.686;2023-05-19T07:27:31;96581.03;;;17.46;83.92
57644;BME280;43474;46.510;6.686;2023-05-19T07:29:57;96589.81;;;16.87;86.27
57644;BME280;43474;46.510;6.686;2023-05-19T07:32:23;96581.66;;;18.17;82.46
57644;BME280;43474;46.510;6.686;2023-05-19T07:34:49;96582.38;;;18.85;81.21
57644;BME280;43474;46.510;6.686;2023-05-19T07:37:14;96580.66;;;19.37;72.52
57644;BME280;43474;46.510;6.686;2023-05-19T07:39:41;96582.94;;;19.06;77.49
57644;BME280;43474;46.510;6.686;2023-05-19T07:42:06;96572.03;;;18.98;74.65
57644;BME280;43474;46.510;6.686;2023-05-19T07:44:32;96580.41;;;19.58;73.37
57644;BME280;43474;46.510;6.686;2023-05-19T07:46:59;96578.06;;;20.73;75.88
57644;BME280;43474;46.510;6.686;2023-05-19T07:49:25;96566.41;;;20.64;69.38
57644;BME280;43474;46.510;6.686;2023-05-19T07:51:50;96581.41;;;21.11;78.53
57644;BME280;43474;46.510;6.686;2023-05-19T07:54:16;96554.69;;;19.09;73.22
57644;BME280;43474;46.510;6.686;2023-05-19T07:56:42;96556.03;;;17.56;83.42
57644;BME280;43474;46.510;6.686;2023-05-19T07:59:08;96553.22;;;18.74;77.76
57644;BME280;43474;46.510;6.686;2023-05-19T08:01:33;96562.00;;;17.43;76.75
57644;BME280;43474;46.510;6.686;2023-05-19T08:03:59;96551.13;;;16.13;87.06
57644;BME280;43474;46.510;6.686;2023-05-19T08:06:25;96571.34;;;18.29;80.92
57644;BME280;43474;46.510;6.686;2023-05-19T08:08:50;96558.44;;;18.02;82.57
57644;BME280;43474;46.510;6.686;2023-05-19T08:11:16;96555.53;;;18.27;79.18
57644;BME280;43474;46.510;6.686;2023-05-19T08:13:42;96564.44;;;17.34;81.13
57644;BME280;43474;46.510;6.686;2023-05-19T08:16:07;96569.50;;;16.71;81.42
57644;BME280;43474;46.510;6.686;2023-05-19T08:18:33;96556.75;;;15.96;90.60
57644;BME280;43474;46.510;6.686;2023-05-19T08:20:59;96560.59;;;17.01;84.84
57644;BME280;43474;46.510;6.686;2023-05-19T08:23:24;96572.16;;;16.86;87.01
57644;BME280;43474;46.510;6.686;2023-05-19T08:25:50;96548.84;;;19.26;74.21
57644;BME280;43474;46.510;6.686;2023-05-19T08:28:15;96561.94;;;18.84;73.61
57644;BME280;43474;46.510;6.686;2023-05-19T08:30:41;96550.91;;;20.23;72.14
57644;BME280;43474;46.510;6.686;2023-05-19T08:33:07;96555.00;;;18.54;74.10
57644;BME280;43474;46.510;6.686;2023-05-19T08:35:32;96550.94;;;17.54;75.85
57644;BME280;43474;46.510;6.686;2023-05-19T08:37:58;96546.38;;;17.05;81.24
57644;BME280;43474;46.510;6.686;2023-05-19T08:40:24;96549.13;;;19.24;82.13
57644;BME280;43474;46.510;6.686;2023-05-19T08:42:53;96542.78;;;19.96;70.21
57644;BME280;43474;46.510;6.686;2023-05-19T08:45:18;96543.53;;;20.15;69.50
57644;BME280;43474;46.510;6.686;2023-05-19T08:47:45;96541.84;;;19.06;69.49
57644;BME280;43474;46.510;6.686;2023-05-19T08:50:12;96542.72;;;19.01;73.28
57644;BME280;43474;46.510;6.686;2023-05-19T08:52:50;96547.13;;;18.92;75.76
57644;BME280;43474;46.510;6.686;2023-05-19T08:55:46;96539.00;;;18.97;74.02
57644;BME280;43474;46.510;6.686;2023-05-19T08:58:17;96524.19;;;19.80;68.34
57644;BME280;43474;46.510;6.686;2023-05-19T09:00:45;96536.13;;;20.07;68.98
57644;BME280;43474;46.510;6.686;2023-05-19T09:03:11;96531.81;;;17.76;71.17
57644;BME280;43474;46.510;6.686;2023-05-19T09:05:37;96547.72;;;19.08;71.12
57644;BME280;43474;46.510;6.686;2023-05-19T09:08:04;96530.50;;;19.52;69.04
57644;BME280;43474;46.510;6.686;2023-05-19T09:10:30;96525.63;;;20.38;70.66
57644;BME280;43474;46.510;6.686;2023-05-19T09:12:55;96534.25;;;19.32;68.97
57644;BME280;43474;46.510;6.686;2023-05-19T09:15:25;96545.50;;;20.42;66.59
57644;BME280;43474;46.510;6.686;2023-05-19T09:18:08;96539.06;;;20.98;66.22
57644;BME280;43474;46.510;6.686;2023-05-19T09:20:42;96535.56;;;20.56;66.56
57644;BME280;43474;46.510;6.686;2023-05-19T09:23:15;96525.50;;;20.62;67.57
57644;BME280;43474;46.510;6.686;2023-05-19T09:25:50;96511.56;;;20.60;67.51
57644;BME280;43474;46.510;6.686;2023-05-19T09:28:29;96498.09;;;20.74;65.60
57644;BME280;43474;46.510;6.686;2023-05-19T09:31:08;96512.09;;;21.26;68.36
57644;BME280;43474;46.510;6.686;2023-05-19T09:33:36;96515.13;;;21.10;64.97
57644;BME280;43474;46.510;6.686;2023-05-19T09:36:02;96517.81;;;21.10;68.51
57644;BME280;43474;46.510;6.686;2023-05-19T09:38:30;96514.13;;;21.06;68.30
57644;BME280;43474;46.510;6.686;2023-05-19T09:40:57;96503.16;;;21.03;69.14
57644;BME280;43474;46.510;6.686;2023-05-19T09:43:26;96513.78;;;20.39;68.61
57644;BME280;43474;46.510;6.686;2023-05-19T09:46:06;96503.09;;;20.20;65.04
57644;BME280;43474;46.510;6.686;2023-05-19T09:48:33;96509.63;;;20.47;61.93
57644;BME280;43474;46.510;6.686;2023-05-19T09:51:01;96507.19;;;19.85;64.67
57644;BME280;43474;46.510;6.686;2023-05-19T09:53:28;96510.50;;;19.20;68.96
57644;BME280;43474;46.510;6.686;2023-05-19T09:55:55;96503.72;;;18.56;71.96
57644;BME280;43474;46.510;6.686;2023-05-19T09:58:22;96494.84;;;19.98;69.82
57644;BME280;43474;46.510;6.686;2023-05-19T10:00:49;96489.00;;;20.83;68.41
57644;BME280;43474;46.510;6.686;2023-05-19T10:03:16;96496.25;;;20.42;64.78
57644;BME280;43474;46.510;6.686;2023-05-19T10:05:43;96502.47;;;20.09;66.40
57644;BME280;43474;46.510;6.686;2023-05-19T10:08:10;96499.94;;;20.46;67.70
57644;BME280;43474;46.510;6.686;2023-05-19T10:10:36;96506.59;;;21.45;68.06
57644;BME280;43474;46.510;6.686;2023-05-19T10:13:03;96494.41;;;21.47;68.08
57644;BME280;43474;46.510;6.686;2023-05-19T10:15:29;96504.16;;;20.93;62.98
57644;BME280;43474;46.510;6.686;2023-05-19T10:17:55;96490.56;;;21.62;61.98
57644;BME280;43474;46.510;6.686;2023-05-19T10:20:21;96488.16;;;21.83;59.26
57644;BME280;43474;46.510;6.686;2023-05-19T10:22:46;96485.00;;;21.81;61.59
57644;BME280;43474;46.510;6.686;2023-05-19T10:25:13;96474.00;;;21.77;60.09
57644;BME280;43474;46.510;6.686;2023-05-19T10:27:42;96473.91;;;20.96;62.03
57644;BME280;43474;46.510;6.686;2023-05-19T10:30:18;96486.00;;;20.99;66.25
57644;BME280;43474;46.510;6.686;2023-05-19T10:32:45;96483.72;;;21.28;66.14
57644;BME280;43474;46.510;6.686;2023-05-19T10:35:26;96487.97;;;21.34;61.49
57644;BME280;43474;46.510;6.686;2023-05-19T10:38:11;96490.03;;;19.81;68.07
57644;BME280;43474;46.510;6.686;2023-05-19T10:43:38;96483.63;;;20.09;66.76
57644;BME280;43474;46.510;6.686;2023-05-19T10:46:07;96486.00;;;20.57;64.73
57644;BME280;43474;46.510;6.686;2023-05-19T10:48:33;96485.53;;;20.09;67.38
57644;BME280;43474;46.510;6.686;2023-05-19T10:51:00;96477.94;;;19.78;69.34
57644;BME280;43474;46.510;6.686;2023-05-19T10:53:31;96472.06;;;20.09;64.92
57644;BME280;43474;46.510;6.686;2023-05-19T10:55:57;96485.34;;;20.33;67.05
57644;BME280;43474;46.510;6.686;2023-05-19T11:01:12;96470.06;;;19.30;69.20
57644;BME280;43474;46.510;6.686;2023-05-19T11:03:52;96478.13;;;20.61;66.75
57644;BME280;43474;46.510;6.686;2023-05-19T11:06:26;96473.03;;;19.10;67.23
57644;BME280;43474;46.510;6.686;2023-05-19T11:11:18;96464.94;;;18.67;69.69
57644;BME280;43474;46.510;6.686;2023-05-19T11:13:54;96469.16;;;19.73;68.05
57644;BME280;43474;46.510;6.686;2023-05-19T11:16:33;96461.50;;;20.12;68.48
57644;BME280;43474;46.510;6.686;2023-05-19T11:18:59;96453.16;;;20.28;68.89
57644;BME280;43474;46.510;6.686;2023-05-19T11:21:46;96466.72;;;20.36;67.23
57644;BME280;43474;46.510;6.686;2023-05-19T11:26:57;96448.53;;;21.25;65.49
57644;BME280;43474;46.510;6.686;2023-05-19T11:29:23;96464.38;;;20.02;63.22
57644;BME280;43474;46.510;6.686;2023-05-19T11:31:49;96458.13;;;20.21;68.33
57644;BME280;43474;46.510;6.686;2023-05-19T11:34:16;96456.25;;;20.35;70.39
57644;BME280;43474;46.510;6.686;2023-05-19T11:36:43;96448.97;;;20.22;65.83
57644;BME280;43474;46.510;6.686;2023-05-19T11:39:10;96451.91;;;19.60;69.10
57644;BME280;43474;46.510;6.686;2023-05-19T11:41:38;96456.97;;;19.43;69.99
57644;BME280;43474;46.510;6.686;2023-05-19T11:44:10;96457.13;;;19.32;68.80
57644;BME280;43474;46.510;6.686;2023-05-19T11:46:36;96454.97;;;19.86;70.61
57644;BME280;43474;46.510;6.686;2023-05-19T11:49:04;96464.44;;;20.30;69.83
57644;BME280;43474;46.510;6.686;2023-05-19T11:51:29;96453.66;;;20.44;65.67
57644;BME280;43474;46.510;6.686;2023-05-19T11:53:57;96441.88;;;20.12;70.21
57644;BME280;43474;46.510;6.686;2023-05-19T11:56:22;96441.88;;;20.12;73.33
57644;BME280;43474;46.510;6.686;2023-05-19T11:58:48;96440.34;;;20.66;68.23
57644;BME280;43474;46.510;6.686;2023-05-19T12:01:13;96435.00;;;21.02;68.97
57644;BME280;43474;46.510;6.686;2023-05-19T12:03:39;96436.34;;;20.63;65.94
57644;BME280;43474;46.510;6.686;2023-05-19T12:06:05;96436.63;;;20.34;66.05
57644;BME280;43474;46.510;6.686;2023-05-19T12:08:34;96440.88;;;20.08;66.10
57644;BME280;43474;46.510;6.686;2023-05-19T12:10:59;96434.22;;;19.54;66.31
57644;BME280;43474;46.510;6.686;2023-05-19T12:13:26;96434.44;;;19.38;68.85
57644;BME280;43474;46.510;6.686;2023-05-19T12:15:51;96433.28;;;19.63;67.48
57644;BME280;43474;46.510;6.686;2023-05-19T12:18:18;96428.34;;;19.33;69.61
57644;BME280;43474;46.510;6.686;2023-05-19T12:20:43;96422.50;;;19.31;73.22
57644;BME280;43474;46.510;6.686;2023-05-19T12:23:11;96425.50;;;19.95;69.89
57644;BME280;43474;46.510;6.686;2023-05-19T12:25:36;96421.34;;;20.44;76.33
57644;BME280;43474;46.510;6.686;2023-05-19T12:28:02;96414.88;;;20.31;70.41
57644;BME280;43474;46.510;6.686;2023-05-19T12:30:29;96432.97;;;19.98;70.97
57644;BME280;43474;46.510;6.686;2023-05-19T12:32:55;96421.38;;;19.51;72.85
57644;BME280;43474;46.510;6.686;2023-05-19T12:35:31;96397.25;;;20.25;66.46
57644;BME280;43474;46.510;6.686;2023-05-19T12:38:05;96407.34;;;20.60;67.24
57644;BME280;43474;46.510;6.686;2023-05-19T12:40:32;96413.31;;;21.07;71.49
57644;BME280;43474;46.510;6.686;2023-05-19T12:42:59;96404.44;;;21.43;67.61
57644;BME280;43474;46.510;6.686;2023-05-19T12:45:25;96412.84;;;21.64;65.42
57644;BME280;43474;46.510;6.686;2023-05-19T12:47:52;96401.88;;;21.60;64.12
57644;BME280;43474;46.510;6.686;2023-05-19T12:50:18;96416.31;;;21.06;59.33
57644;BME280;43474;46.510;6.686;2023-05-19T12:52:45;96408.09;;;20.88;61.46
57644;BME280;43474;46.510;6.686;2023-05-19T12:55:11;96415.88;;;20.90;69.49
57644;BME280;43474;46.510;6.686;2023-05-19T12:57:40;96421.25;;;20.90;61.09
57644;BME280;43474;46.510;6.686;2023-05-19T13:00:16;96397.00;;;20.90;67.46
57644;BME280;43474;46.510;6.686;2023-05-19T13:02:58;96392.63;;;20.94;62.42
57644;BME280;43474;46.510;6.686;2023-05-19T13:05:24;96382.41;;;21.05;63.70
57644;BME280;43474;46.510;6.686;2023-05-19T13:08:01;96397.25;;;21.02;65.97
57644;BME280;43474;46.510;6.686;2023-05-19T13:10:27;96396.31;;;21.21;73.63
57644;BME280;43474;46.510;6.686;2023-05-19T13:12:54;96388.78;;;20.59;63.55
57644;BME280;43474;46.510;6.686;2023-05-19T13:15:24;96401.03;;;20.79;64.51
57644;BME280;43474;46.510;6.686;2023-05-19T13:17:53;96390.19;;;20.92;63.43
57644;BME280;43474;46.510;6.686;2023-05-19T13:20:20;96399.16;;;21.02;61.52
57644;BME280;43474;46.510;6.686;2023-05-19T13:22:47;96379.41;;;20.56;64.51
57644;BME280;43474;46.510;6.686;2023-05-19T13:25:12;96373.81;;;20.39;61.79